Terminal Aerodrome Forecast
Issued by NWS

Home | Current Version | Previous Version | Text Only | Print | Product List | Glossary On
Versions: 1 2 3 4 5 6 7 8 9 10 11 12 13
645
FTUS44 KTSA 222321
TAFFYV
TAF
KFYV 222321Z 2300/2324 14010G15KT P6SM SKC
     FM230300 VRB03KT P6SM SCT035 BKN250
     FM230900 00000KT 3SM BR BKN015
     FM231400 34011KT P6SM VCTS BKN015CB PROB30 2318/2324 4SM -TSRA
      BKN025CB=

USA.gov is the U.S. government's official web portal to all federal, state and local government web resources and services.